Time;durP1;ratioP1;P1;durP2;ratioP2;P2;SDS_P1;SDS_P2;PMS_P1;PMS_P2;Temp;Humidity;BMP_temperature;BMP_pressure;BME280_temperature;BME280_humidity;BME280_pressure;Samples;Min_cycle;Max_cycle;Signal;HPM_P1;HPM_P2
2022/11/25 00:00:44;;;;;;;64.50;24.13;;;;;;;;;;5093151;28;20027;-80
2022/11/25 00:03:10;;;;;;;65.07;24.40;;;;;;;;;;5089494;28;20016;-79
2022/11/25 00:05:35;;;;;;;63.22;23.75;;;;;;;;;;5083108;28;20040;-78
2022/11/25 00:08:00;;;;;;;61.70;22.63;;;;;;;;;;5074049;28;20474;-79
2022/11/25 00:10:26;;;;;;;63.55;23.73;;;;;;;;;;5073882;28;20028;-78
2022/11/25 00:12:51;;;;;;;65.53;23.60;;;;;;;;;;5083645;28;20039;-70
2022/11/25 00:15:17;;;;;;;70.78;22.77;;;;;;;;;;5096290;28;20065;-67
2022/11/25 00:17:42;;;;;;;72.78;23.45;;;;;;;;;;5108863;28;20028;-67
2022/11/25 00:20:08;;;;;;;64.90;22.38;;;;;;;;;;5093960;28;20028;-77
2022/11/25 00:22:33;;;;;;;66.15;21.75;;;;;;;;;;5093968;28;20115;-70
2022/11/25 00:24:59;;;;;;;58.22;22.00;;;;;;;;;;5093919;28;20024;-70
2022/11/25 00:27:24;;;;;;;68.30;23.17;;;;;;;;;;5093573;28;20157;-69
2022/11/25 00:29:50;;;;;;;63.45;22.17;;;;;;;;;;5094190;28;20477;-68
2022/11/25 00:32:15;;;;;;;65.40;23.35;;;;;;;;;;5085968;28;20020;-72
2022/11/25 00:34:41;;;;;;;62.25;22.45;;;;;;;;;;5083538;28;20113;-72
2022/11/25 00:37:06;;;;;;;69.78;22.27;;;;;;;;;;5108530;28;20032;-68
2022/11/25 00:39:32;;;;;;;70.40;24.88;;;;;;;;;;5096561;28;20322;-76
2022/11/25 00:44:41;;;;;;;69.43;23.00;;;;;;;;;;5102194;28;20431;-74
2022/11/25 00:47:19;;;;;;;69.10;23.30;;;;;;;;;;5108541;28;20020;-76
2022/11/25 00:49:47;;;;;;;68.70;22.83;;;;;;;;;;5080366;28;20076;-81
2022/11/25 00:52:15;;;;;;;64.63;23.02;;;;;;;;;;5113862;28;20020;-80
2022/11/25 00:54:40;;;;;;;60.58;22.85;;;;;;;;;;5108797;28;20393;-79
2022/11/25 00:57:06;;;;;;;65.53;23.65;;;;;;;;;;5093445;28;20028;-78
2022/11/25 00:59:31;;;;;;;59.85;20.95;;;;;;;;;;5093375;28;20030;-77
2022/11/25 01:01:57;;;;;;;66.35;21.75;;;;;;;;;;5093507;28;20024;-80
2022/11/25 01:04:23;;;;;;;67.63;23.05;;;;;;;;;;5093233;28;20086;-79
2022/11/25 01:06:48;;;;;;;73.82;24.55;;;;;;;;;;5093287;28;20020;-78
2022/11/25 01:09:14;;;;;;;78.35;25.15;;;;;;;;;;5093328;28;20028;-76
2022/11/25 01:11:40;;;;;;;68.68;24.67;;;;;;;;;;5092935;28;20116;-75
2022/11/25 01:14:06;;;;;;;73.53;25.52;;;;;;;;;;5108461;28;20081;-79
2022/11/25 01:16:32;;;;;;;73.63;26.08;;;;;;;;;;5113193;28;20039;-76
2022/11/25 01:18:59;;;;;;;76.10;25.02;;;;;;;;;;5113495;28;20026;-73
2022/11/25 01:21:28;;;;;;;71.90;25.80;;;;;;;;;;5092434;28;20028;-69
2022/11/25 01:23:54;;;;;;;74.35;25.48;;;;;;;;;;5092525;28;20024;-68
2022/11/25 01:26:21;;;;;;;75.40;25.63;;;;;;;;;;5092575;28;20035;-67
2022/11/25 01:28:48;;;;;;;69.03;23.92;;;;;;;;;;5092617;28;20016;-67
2022/11/25 01:31:15;;;;;;;73.65;25.05;;;;;;;;;;5090913;28;20027;-69
2022/11/25 01:33:41;;;;;;;82.90;25.92;;;;;;;;;;5089256;28;20066;-68
2022/11/25 01:36:16;;;;;;;77.90;24.92;;;;;;;;;;5091491;28;20032;-68
2022/11/25 01:38:43;;;;;;;64.38;23.65;;;;;;;;;;5088702;28;20034;-67
2022/11/25 01:41:11;;;;;;;63.13;23.58;;;;;;;;;;5091386;28;20024;-67
2022/11/25 01:43:37;;;;;;;65.80;23.63;;;;;;;;;;5089193;28;20024;-67
2022/11/25 01:46:25;;;;;;;63.92;23.38;;;;;;;;;;5090346;28;20065;-67
2022/11/25 01:48:53;;;;;;;76.88;26.45;;;;;;;;;;5090188;28;20028;-70
2022/11/25 01:51:40;;;;;;;72.53;24.60;;;;;;;;;;5088582;28;20016;-67
2022/11/25 01:54:10;;;;;;;64.50;21.30;;;;;;;;;;5088981;28;20404;-67
2022/11/25 01:56:45;;;;;;;77.67;25.53;;;;;;;;;;5091184;28;20123;-69
2022/11/25 01:59:12;;;;;;;69.80;22.23;;;;;;;;;;5073830;28;20256;-68
2022/11/25 02:01:38;;;;;;;79.45;25.13;;;;;;;;;;5091265;28;20012;-68
2022/11/25 02:04:06;;;;;;;82.53;26.77;;;;;;;;;;5091226;28;20388;-68
2022/11/25 02:06:39;;;;;;;85.32;25.75;;;;;;;;;;5091020;28;20060;-78
2022/11/25 02:09:07;;;;;;;80.10;23.98;;;;;;;;;;5089424;28;20072;-79
2022/11/25 02:11:35;;;;;;;83.47;26.38;;;;;;;;;;5091916;28;20024;-69
2022/11/25 02:14:01;;;;;;;77.55;25.10;;;;;;;;;;5106976;28;20497;-76
2022/11/25 02:16:27;;;;;;;72.07;23.58;;;;;;;;;;5112416;28;20365;-70
2022/11/25 02:18:53;;;;;;;70.93;23.17;;;;;;;;;;5112335;28;20026;-74
2022/11/25 02:21:35;;;;;;;75.43;24.05;;;;;;;;;;5112268;28;20444;-69
2022/11/25 02:24:19;;;;;;;57.95;21.70;;;;;;;;;;5112593;28;20161;-69
2022/11/25 02:26:45;;;;;;;60.60;22.73;;;;;;;;;;5104699;28;20489;-67
2022/11/25 02:29:11;;;;;;;65.40;24.38;;;;;;;;;;5091969;28;20120;-67
2022/11/25 02:31:37;;;;;;;77.88;24.17;;;;;;;;;;5092089;28;20020;-68
2022/11/25 02:34:02;;;;;;;69.53;22.83;;;;;;;;;;5091949;28;20173;-69
2022/11/25 02:36:28;;;;;;;75.90;23.30;;;;;;;;;;5091691;28;20085;-67
2022/11/25 02:38:59;;;;;;;65.63;22.73;;;;;;;;;;5091682;28;20038;-68
2022/11/25 02:41:31;;;;;;;67.78;23.75;;;;;;;;;;5091927;28;20408;-68
2022/11/25 02:43:57;;;;;;;69.97;23.00;;;;;;;;;;5091985;28;20028;-68
2022/11/25 02:46:25;;;;;;;61.50;22.98;;;;;;;;;;5091320;28;20416;-67
2022/11/25 02:48:52;;;;;;;69.60;23.05;;;;;;;;;;5091373;28;20307;-68
2022/11/25 02:51:21;;;;;;;65.63;23.45;;;;;;;;;;5090937;28;20119;-68
2022/11/25 02:53:47;;;;;;;76.35;26.88;;;;;;;;;;5091615;28;20477;-71
2022/11/25 02:56:13;;;;;;;65.45;25.60;;;;;;;;;;5091651;28;20038;-68
2022/11/25 02:58:39;;;;;;;83.53;25.17;;;;;;;;;;5093783;28;20168;-70
2022/11/25 03:01:05;;;;;;;71.78;23.92;;;;;;;;;;5095357;28;20402;-68
2022/11/25 03:03:31;;;;;;;66.43;24.85;;;;;;;;;;5095416;28;20450;-68
2022/11/25 03:05:56;;;;;;;76.20;25.05;;;;;;;;;;5095160;28;20051;-67
2022/11/25 03:08:22;;;;;;;76.85;26.52;;;;;;;;;;5094943;28;20479;-71
2022/11/25 03:10:47;;;;;;;76.38;26.85;;;;;;;;;;5095169;28;20020;-68
2022/11/25 03:13:13;;;;;;;72.18;24.17;;;;;;;;;;5103201;28;20472;-67
2022/11/25 03:15:39;;;;;;;75.18;25.00;;;;;;;;;;5115497;28;20494;-69
2022/11/25 03:18:05;;;;;;;73.18;25.45;;;;;;;;;;5115594;28;20020;-68
2022/11/25 03:20:31;;;;;;;86.15;27.83;;;;;;;;;;5115238;28;20047;-77
2022/11/25 03:22:56;;;;;;;89.93;28.77;;;;;;;;;;5115502;28;20027;-68
2022/11/25 03:25:22;;;;;;;103.88;30.13;;;;;;;;;;5115174;28;20019;-68
2022/11/25 03:27:48;;;;;;;83.53;28.20;;;;;;;;;;5098070;28;20431;-69
2022/11/25 03:30:22;;;;;;;97.05;27.45;;;;;;;;;;5094438;28;20067;-68
2022/11/25 03:32:48;;;;;;;99.72;28.20;;;;;;;;;;5094512;28;20466;-68
2022/11/25 03:35:14;;;;;;;102.82;28.10;;;;;;;;;;5094499;28;20046;-69
2022/11/25 03:37:39;;;;;;;99.22;27.60;;;;;;;;;;5094903;28;20024;-68
2022/11/25 03:40:06;;;;;;;117.80;28.63;;;;;;;;;;5094867;28;20081;-68
2022/11/25 03:42:32;;;;;;;142.38;31.38;;;;;;;;;;5094666;28;20032;-68
2022/11/25 03:44:58;;;;;;;121.65;29.17;;;;;;;;;;5094696;28;20024;-77
2022/11/25 03:47:24;;;;;;;135.18;31.13;;;;;;;;;;5094706;28;20417;-69
2022/11/25 03:49:49;;;;;;;137.10;30.90;;;;;;;;;;5094561;28;20474;-72
2022/11/25 03:52:15;;;;;;;146.07;30.73;;;;;;;;;;5094746;28;20052;-71
2022/11/25 03:54:41;;;;;;;147.85;31.73;;;;;;;;;;5094498;28;20032;-71
2022/11/25 03:57:06;;;;;;;165.55;32.75;;;;;;;;;;5093827;28;20036;-71
2022/11/25 03:59:31;;;;;;;167.95;34.67;;;;;;;;;;5093669;28;20053;-69
2022/11/25 04:01:57;;;;;;;158.85;32.97;;;;;;;;;;5093906;28;20042;-70
2022/11/25 04:04:23;;;;;;;151.00;30.90;;;;;;;;;;5075487;28;20028;-68
2022/11/25 04:06:48;;;;;;;185.73;35.38;;;;;;;;;;5094293;28;20024;-78
2022/11/25 04:09:14;;;;;;;181.88;37.38;;;;;;;;;;5093414;28;20030;-69
2022/11/25 04:14:24;;;;;;;178.98;35.63;;;;;;;;;;5112259;28;20042;-67
2022/11/25 04:16:51;;;;;;;192.18;38.28;;;;;;;;;;5114271;28;20464;-69
2022/11/25 04:19:16;;;;;;;176.50;37.17;;;;;;;;;;5114278;28;20031;-78
2022/11/25 04:21:42;;;;;;;173.82;37.55;;;;;;;;;;5114475;28;20042;-70
2022/11/25 04:24:07;;;;;;;146.18;32.38;;;;;;;;;;5114422;28;20409;-76
2022/11/25 04:26:33;;;;;;;179.85;34.28;;;;;;;;;;5107823;28;20389;-75
2022/11/25 04:28:58;;;;;;;169.32;34.15;;;;;;;;;;5093226;28;20020;-77
2022/11/25 04:31:24;;;;;;;194.60;39.72;;;;;;;;;;5093254;28;20020;-77
2022/11/25 04:33:49;;;;;;;123.70;26.27;;;;;;;;;;5093321;28;20016;-78
2022/11/25 04:36:15;;;;;;;167.20;36.53;;;;;;;;;;5093757;28;20465;-73
2022/11/25 04:38:40;;;;;;;161.90;31.02;;;;;;;;;;5093803;28;20099;-76
2022/11/25 04:41:06;;;;;;;153.75;32.50;;;;;;;;;;5093369;28;20016;-77
2022/11/25 04:43:31;;;;;;;199.77;41.33;;;;;;;;;;5093061;28;20032;-78
2022/11/25 04:45:57;;;;;;;202.63;39.15;;;;;;;;;;5093032;28;20380;-76
2022/11/25 04:48:23;;;;;;;222.20;45.92;;;;;;;;;;5092792;28;20081;-75
2022/11/25 04:50:48;;;;;;;223.10;46.25;;;;;;;;;;5093559;28;20031;-78
2022/11/25 04:53:14;;;;;;;300.98;58.28;;;;;;;;;;5093730;28;20012;-76
2022/11/25 04:55:39;;;;;;;261.10;52.58;;;;;;;;;;5093426;28;20039;-74
2022/11/25 04:58:05;;;;;;;268.17;54.30;;;;;;;;;;5093148;28;20024;-73
2022/11/25 05:00:30;;;;;;;177.77;40.10;;;;;;;;;;5093242;28;20028;-75
2022/11/25 05:02:55;;;;;;;187.07;38.92;;;;;;;;;;5075159;28;20020;-69
2022/11/25 05:05:21;;;;;;;135.40;30.05;;;;;;;;;;5093159;28;20028;-68
2022/11/25 05:07:47;;;;;;;150.85;32.22;;;;;;;;;;5093086;28;20024;-69
2022/11/25 05:10:13;;;;;;;145.60;32.90;;;;;;;;;;5092739;28;20031;-69
2022/11/25 05:12:40;;;;;;;146.05;31.85;;;;;;;;;;5095377;28;20028;-68
2022/11/25 05:15:06;;;;;;;123.93;30.50;;;;;;;;;;5112305;28;20566;-68
2022/11/25 05:17:33;;;;;;;138.18;30.20;;;;;;;;;;5112500;28;20027;-70
2022/11/25 05:19:59;;;;;;;116.30;26.73;;;;;;;;;;5112961;28;20080;-67
2022/11/25 05:22:27;;;;;;;143.40;31.30;;;;;;;;;;5113315;28;20032;-67
2022/11/25 05:24:54;;;;;;;142.38;30.38;;;;;;;;;;5112964;28;20086;-67
2022/11/25 05:27:21;;;;;;;127.25;30.23;;;;;;;;;;5099965;28;20050;-72
2022/11/25 05:29:47;;;;;;;146.52;31.35;;;;;;;;;;5091794;28;20020;-67
2022/11/25 05:32:13;;;;;;;119.07;29.33;;;;;;;;;;5092088;28;20020;-67
2022/11/25 05:34:39;;;;;;;124.60;30.58;;;;;;;;;;5092301;28;20103;-71
2022/11/25 05:37:05;;;;;;;115.75;28.58;;;;;;;;;;5092471;28;20062;-68
2022/11/25 05:39:31;;;;;;;142.88;33.88;;;;;;;;;;5092456;28;20039;-70
2022/11/25 05:41:57;;;;;;;140.95;33.50;;;;;;;;;;5092369;28;20016;-67
2022/11/25 05:44:22;;;;;;;155.77;34.75;;;;;;;;;;5092165;28;20466;-68
2022/11/25 05:46:48;;;;;;;135.07;32.88;;;;;;;;;;5092361;28;20032;-71
2022/11/25 05:49:14;;;;;;;138.90;31.50;;;;;;;;;;5092362;28;20445;-67
2022/11/25 05:51:40;;;;;;;122.00;30.58;;;;;;;;;;5092306;28;20099;-67
2022/11/25 05:54:06;;;;;;;125.68;30.42;;;;;;;;;;5092378;28;20051;-68
2022/11/25 05:56:32;;;;;;;129.13;32.33;;;;;;;;;;5091630;28;20032;-68
2022/11/25 05:58:58;;;;;;;118.15;32.30;;;;;;;;;;5091569;28;20073;-67
2022/11/25 06:01:24;;;;;;;122.57;30.65;;;;;;;;;;5091667;28;20115;-68
2022/11/25 06:03:49;;;;;;;107.93;29.70;;;;;;;;;;5091712;28;20103;-67
2022/11/25 06:06:15;;;;;;;118.07;30.95;;;;;;;;;;5091998;28;20028;-69
2022/11/25 06:08:41;;;;;;;106.68;28.23;;;;;;;;;;5092046;28;20054;-70
2022/11/25 06:11:08;;;;;;;120.35;29.85;;;;;;;;;;5092161;28;20078;-73
2022/11/25 06:13:34;;;;;;;108.47;29.55;;;;;;;;;;5102710;28;20046;-69
2022/11/25 06:16:07;;;;;;;94.85;25.10;;;;;;;;;;5112394;28;20459;-68
2022/11/25 06:18:33;;;;;;;92.70;23.75;;;;;;;;;;5112503;28;20388;-69
2022/11/25 06:20:58;;;;;;;96.55;26.10;;;;;;;;;;5112383;28;20024;-70
2022/11/25 06:23:25;;;;;;;95.10;24.40;;;;;;;;;;5112456;28;20088;-73
2022/11/25 06:25:51;;;;;;;80.72;23.42;;;;;;;;;;5111908;28;20055;-70
2022/11/25 06:28:16;;;;;;;80.10;24.13;;;;;;;;;;5070889;28;20063;-70
2022/11/25 06:30:42;;;;;;;82.63;22.95;;;;;;;;;;5071239;28;20454;-73
2022/11/25 06:33:07;;;;;;;81.20;22.58;;;;;;;;;;5072715;28;20393;-71
2022/11/25 06:35:33;;;;;;;76.93;21.63;;;;;;;;;;5075711;28;20115;-70
2022/11/25 06:37:58;;;;;;;69.22;22.48;;;;;;;;;;5075609;28;20033;-69
2022/11/25 06:40:24;;;;;;;58.30;17.80;;;;;;;;;;5075749;28;20052;-69
2022/11/25 06:42:50;;;;;;;70.13;20.38;;;;;;;;;;5075332;28;20028;-70
2022/11/25 06:45:15;;;;;;;68.22;20.67;;;;;;;;;;5075335;28;20055;-68
2022/11/25 06:47:41;;;;;;;50.22;16.55;;;;;;;;;;5075531;28;20024;-71
2022/11/25 06:50:06;;;;;;;66.22;19.08;;;;;;;;;;5075571;28;20024;-68
2022/11/25 06:52:32;;;;;;;76.07;21.10;;;;;;;;;;5075505;28;20024;-79
2022/11/25 06:54:58;;;;;;;70.97;21.33;;;;;;;;;;5075370;28;20118;-77
2022/11/25 06:57:23;;;;;;;78.32;21.13;;;;;;;;;;5074611;28;20116;-80
2022/11/25 06:59:50;;;;;;;59.45;20.35;;;;;;;;;;5074686;28;20127;-80
2022/11/25 07:02:15;;;;;;;75.70;21.55;;;;;;;;;;5074924;28;20082;-79
2022/11/25 07:04:41;;;;;;;65.32;19.15;;;;;;;;;;5074552;28;20036;-79
2022/11/25 07:07:07;;;;;;;71.28;20.42;;;;;;;;;;5074912;28;20043;-79
2022/11/25 07:09:32;;;;;;;60.05;20.27;;;;;;;;;;5075194;28;20021;-77
2022/11/25 07:11:58;;;;;;;74.25;20.80;;;;;;;;;;5074709;28;20045;-79
2022/11/25 07:14:23;;;;;;;53.25;17.45;;;;;;;;;;5111004;28;20023;-79
2022/11/25 07:16:48;;;;;;;71.07;21.25;;;;;;;;;;5115663;28;20028;-79
2022/11/25 07:19:15;;;;;;;76.38;21.98;;;;;;;;;;5115537;28;20030;-78
2022/11/25 07:21:44;;;;;;;67.22;20.83;;;;;;;;;;5115572;28;20177;-77
2022/11/25 07:24:14;;;;;;;101.43;22.75;;;;;;;;;;5115488;28;20027;-75
2022/11/25 07:26:41;;;;;;;67.95;20.90;;;;;;;;;;5107636;28;20107;-69
2022/11/25 07:29:11;;;;;;;80.65;23.05;;;;;;;;;;5094566;28;20051;-72
2022/11/25 07:31:39;;;;;;;92.03;24.63;;;;;;;;;;5094379;28;20100;-67
2022/11/25 07:34:19;;;;;;;90.38;25.10;;;;;;;;;;5094380;28;20036;-68
2022/11/25 07:36:46;;;;;;;89.00;24.73;;;;;;;;;;5094859;28;20032;-68
2022/11/25 07:39:18;;;;;;;87.25;21.75;;;;;;;;;;5076789;28;20423;-68
2022/11/25 07:41:44;;;;;;;86.43;23.92;;;;;;;;;;5094384;28;20384;-67
2022/11/25 07:44:13;;;;;;;84.15;25.42;;;;;;;;;;5094636;28;20020;-67
2022/11/25 07:46:41;;;;;;;89.10;25.60;;;;;;;;;;5094616;28;20028;-68
2022/11/25 07:49:13;;;;;;;83.28;24.55;;;;;;;;;;5094123;28;20077;-68
2022/11/25 07:51:49;;;;;;;81.28;23.00;;;;;;;;;;5094541;28;20028;-68
2022/11/25 07:54:16;;;;;;;66.13;20.63;;;;;;;;;;5094450;28;20023;-70
2022/11/25 07:56:43;;;;;;;95.40;24.95;;;;;;;;;;5093702;28;20030;-68
2022/11/25 07:59:12;;;;;;;85.05;22.77;;;;;;;;;;5093853;28;20016;-68
2022/11/25 08:01:37;;;;;;;82.25;23.35;;;;;;;;;;5093355;28;20024;-70
2022/11/25 08:04:03;;;;;;;69.25;21.15;;;;;;;;;;5072175;28;20492;-67
2022/11/25 08:06:29;;;;;;;67.78;21.50;;;;;;;;;;5093929;28;20024;-68
2022/11/25 08:08:56;;;;;;;66.13;21.45;;;;;;;;;;5093999;28;20427;-69
2022/11/25 08:11:28;;;;;;;60.92;19.67;;;;;;;;;;5091458;28;20405;-75
2022/11/25 08:13:53;;;;;;;57.00;20.17;;;;;;;;;;5094013;28;20028;-73
2022/11/25 08:16:21;;;;;;;58.22;20.67;;;;;;;;;;5075452;28;20027;-69
2022/11/25 08:18:47;;;;;;;63.10;21.13;;;;;;;;;;5093766;28;20024;-74
2022/11/25 08:21:14;;;;;;;50.22;18.65;;;;;;;;;;5093744;28;20031;-75
2022/11/25 08:23:42;;;;;;;54.95;19.52;;;;;;;;;;5093533;28;20024;-78
2022/11/25 08:26:13;;;;;;;34.92;13.65;;;;;;;;;;5093022;28;20035;-69
2022/11/25 08:28:40;;;;;;;57.53;20.92;;;;;;;;;;5091720;28;20012;-78
2022/11/25 08:31:11;;;;;;;48.55;17.20;;;;;;;;;;5090015;28;20518;-77
2022/11/25 08:33:37;;;;;;;58.10;19.30;;;;;;;;;;5093989;28;20028;-77
2022/11/25 08:36:04;;;;;;;70.30;21.88;;;;;;;;;;5093841;28;20027;-74
2022/11/25 08:38:29;;;;;;;74.25;25.17;;;;;;;;;;5093737;28;20055;-76
2022/11/25 08:40:55;;;;;;;73.45;24.08;;;;;;;;;;5087871;28;20059;-77
2022/11/25 08:43:21;;;;;;;50.30;17.52;;;;;;;;;;5085926;28;20487;-76
2022/11/25 08:45:48;;;;;;;66.97;22.23;;;;;;;;;;5093416;28;20024;-76
2022/11/25 08:48:15;;;;;;;63.63;21.02;;;;;;;;;;5093442;28;20534;-68
2022/11/25 08:50:45;;;;;;;49.22;19.10;;;;;;;;;;5093480;28;20032;-74
2022/11/25 08:53:11;;;;;;;56.50;19.60;;;;;;;;;;5093208;28;20193;-67
2022/11/25 08:55:37;;;;;;;62.13;20.35;;;;;;;;;;5092576;28;20032;-68
2022/11/25 08:58:03;;;;;;;54.97;20.70;;;;;;;;;;5092989;28;20074;-69
2022/11/25 09:00:29;;;;;;;49.40;20.30;;;;;;;;;;5093454;28;20028;-74
2022/11/25 09:02:54;;;;;;;50.83;19.67;;;;;;;;;;5065121;28;20024;-76
2022/11/25 09:05:20;;;;;;;36.20;14.48;;;;;;;;;;5092742;28;20020;-74
2022/11/25 09:07:45;;;;;;;34.47;14.52;;;;;;;;;;5092785;28;20031;-69
2022/11/25 09:10:14;;;;;;;41.45;16.50;;;;;;;;;;5093494;28;20031;-70
2022/11/25 09:12:40;;;;;;;43.58;18.45;;;;;;;;;;5096381;28;20036;-76
2022/11/25 09:15:06;;;;;;;47.55;19.67;;;;;;;;;;5113467;28;20026;-76
2022/11/25 09:17:34;;;;;;;52.17;21.08;;;;;;;;;;5113498;28;20063;-77
2022/11/25 09:19:59;;;;;;;44.00;18.35;;;;;;;;;;5113384;28;20423;-71
2022/11/25 09:22:25;;;;;;;44.13;18.92;;;;;;;;;;5113205;28;20032;-76
2022/11/25 09:24:50;;;;;;;34.80;16.80;;;;;;;;;;5094614;28;20040;-75
2022/11/25 09:27:16;;;;;;;31.58;13.82;;;;;;;;;;5101118;28;20024;-75
2022/11/25 09:29:41;;;;;;;41.28;18.15;;;;;;;;;;5092695;28;20036;-76
2022/11/25 09:32:07;;;;;;;43.05;18.83;;;;;;;;;;5092632;28;20106;-75
2022/11/25 09:34:32;;;;;;;41.35;17.90;;;;;;;;;;5092898;28;20032;-67
2022/11/25 09:36:57;;;;;;;41.00;19.35;;;;;;;;;;5102522;28;20115;-68
2022/11/25 09:39:28;;;;;;;51.30;21.40;;;;;;;;;;5114248;28;20023;-68
2022/11/25 09:48:07;;;;;;;63.40;25.73;;;;;;;;;;5112798;28;20108;-72
2022/11/25 09:50:42;;;;;;;59.92;22.48;;;;;;;;;;5112703;28;20042;-75
2022/11/25 09:53:14;;;;;;;79.05;25.98;;;;;;;;;;5113053;28;20027;-68
2022/11/25 09:55:44;;;;;;;62.60;24.23;;;;;;;;;;5094581;28;20024;-70
2022/11/25 09:58:16;;;;;;;;;;;;;;;;;;5113482;28;20411;-69
2022/11/25 10:00:44;;;;;;;60.53;24.40;;;;;;;;;;5112936;28;19926;-72
2022/11/25 10:03:22;;;;;;;50.65;17.75;;;;;;;;;;5112640;28;20034;-67
2022/11/25 10:06:06;;;;;;;59.30;22.80;;;;;;;;;;5112473;28;20024;-74
2022/11/25 10:08:44;;;;;;;59.60;20.90;;;;;;;;;;5115159;28;20028;-71
2022/11/25 10:11:33;;;;;;;62.63;23.25;;;;;;;;;;5117090;28;20023;-67
2022/11/25 10:14:10;;;;;;;49.58;18.95;;;;;;;;;;5116919;28;20472;-73
2022/11/25 10:16:43;;;;;;;62.45;24.23;;;;;;;;;;5116648;28;20023;-70
2022/11/25 10:19:33;;;;;;;51.78;19.60;;;;;;;;;;5116743;28;20023;-70
2022/11/25 10:22:24;;;;;;;52.17;21.73;;;;;;;;;;5116791;28;20055;-68
2022/11/25 10:24:52;;;;;;;54.10;21.02;;;;;;;;;;5116464;28;20365;-75
2022/11/25 10:27:24;;;;;;;57.38;23.52;;;;;;;;;;5104351;28;20028;-72
2022/11/25 10:30:01;;;;;;;54.72;21.75;;;;;;;;;;5095809;28;20055;-73
2022/11/25 10:32:35;;;;;;;50.45;20.05;;;;;;;;;;5096151;28;20170;-74
2022/11/25 10:35:10;;;;;;;49.45;20.65;;;;;;;;;;5095957;28;20105;-68
2022/11/25 10:37:41;;;;;;;45.90;19.20;;;;;;;;;;5095967;28;20370;-74
2022/11/25 10:40:15;;;;;;;38.50;17.88;;;;;;;;;;5096085;28;20051;-73
2022/11/25 10:42:40;;;;;;;42.35;18.17;;;;;;;;;;5095963;28;20035;-74
2022/11/25 10:45:07;;;;;;;33.00;16.27;;;;;;;;;;5095739;28;20029;-69
2022/11/25 10:48:03;;;;;;;35.42;16.40;;;;;;;;;;5095974;28;20055;-69
2022/11/25 10:50:53;;;;;;;34.60;16.83;;;;;;;;;;5095797;28;20032;-70
2022/11/25 10:53:25;;;;;;;38.05;18.35;;;;;;;;;;5095828;28;20020;-68
2022/11/25 10:56:03;;;;;;;41.00;17.40;;;;;;;;;;5094651;28;20038;-73
2022/11/25 10:58:30;;;;;;;42.05;18.15;;;;;;;;;;5095454;28;20078;-72
2022/11/25 11:01:16;;;;;;;37.15;16.85;;;;;;;;;;5095441;28;20024;-71
2022/11/25 11:04:17;;;;;;;43.15;19.10;;;;;;;;;;5095284;28;20024;-73
2022/11/25 11:06:45;;;;;;;46.20;18.30;;;;;;;;;;5085125;28;20031;-75
2022/11/25 11:09:31;;;;;;;51.75;21.58;;;;;;;;;;5095330;28;20080;-72
2022/11/25 11:11:56;;;;;;;46.65;19.00;;;;;;;;;;5095289;28;20051;-69
2022/11/25 11:14:22;;;;;;;50.60;20.00;;;;;;;;;;5113116;28;20023;-70
2022/11/25 11:16:53;;;;;;;50.15;19.92;;;;;;;;;;5115707;28;20380;-74
2022/11/25 11:19:24;;;;;;;58.95;21.23;;;;;;;;;;5115039;28;20031;-72
2022/11/25 11:21:51;;;;;;;55.42;21.35;;;;;;;;;;5115576;28;20020;-75
2022/11/25 11:24:41;;;;;;;56.13;22.40;;;;;;;;;;5115501;28;20055;-68
2022/11/25 11:27:21;;;;;;;53.10;23.00;;;;;;;;;;5104716;28;20113;-69
2022/11/25 11:29:47;;;;;;;57.13;23.75;;;;;;;;;;5095042;28;20032;-74
2022/11/25 11:32:22;;;;;;;59.28;23.63;;;;;;;;;;5094564;28;20483;-70
2022/11/25 11:34:47;;;;;;;60.40;25.30;;;;;;;;;;5076925;28;20023;-70
2022/11/25 11:37:30;;;;;;;65.88;26.02;;;;;;;;;;5094916;28;20133;-73
2022/11/25 11:40:07;;;;;;;66.63;26.98;;;;;;;;;;5095254;28;20509;-73
2022/11/25 11:42:41;;;;;;;66.97;27.13;;;;;;;;;;5094864;28;20036;-76
2022/11/25 11:45:22;;;;;;;63.78;25.52;;;;;;;;;;5094739;28;20024;-75
2022/11/25 11:48:29;;;;;;;61.55;26.27;;;;;;;;;;5094343;28;20036;-76
2022/11/25 11:51:22;;;;;;;76.45;28.42;;;;;;;;;;5086117;28;20044;-73
2022/11/25 11:54:17;;;;;;;77.35;30.92;;;;;;;;;;5076478;28;20024;-74
2022/11/25 11:56:52;;;;;;;70.13;26.08;;;;;;;;;;5094551;28;20028;-71
2022/11/25 11:59:29;;;;;;;71.85;27.52;;;;;;;;;;5094546;28;20028;-76
2022/11/25 12:02:42;;;;;;;71.68;28.52;;;;;;;;;;5094333;28;20032;-75
2022/11/25 12:05:10;;;;;;;65.47;28.35;;;;;;;;;;5031928;28;20052;-77
2022/11/25 12:07:38;;;;;;;73.97;29.00;;;;;;;;;;5015353;28;20030;-76
2022/11/25 12:10:16;;;;;;;80.88;30.63;;;;;;;;;;5031829;28;20044;-74
2022/11/25 12:12:52;;;;;;;58.38;23.95;;;;;;;;;;5032443;28;20502;-76
2022/11/25 12:15:47;;;;;;;74.72;28.17;;;;;;;;;;5031991;28;20112;-77
2022/11/25 12:18:33;;;;;;;75.85;27.67;;;;;;;;;;5015150;28;20030;-77
2022/11/25 12:21:13;;;;;;;66.43;26.73;;;;;;;;;;5012025;28;20104;-76
2022/11/25 12:23:41;;;;;;;63.00;25.13;;;;;;;;;;5011892;28;20030;-69
2022/11/25 12:26:30;;;;;;;69.00;28.52;;;;;;;;;;5013823;28;20038;-74
2022/11/25 12:29:01;;;;;;;69.45;26.75;;;;;;;;;;5031313;28;20515;-75
2022/11/25 12:31:36;;;;;;;82.25;29.73;;;;;;;;;;5030442;28;20431;-70
2022/11/25 12:34:12;;;;;;;89.10;31.92;;;;;;;;;;5031586;28;20134;-76
2022/11/25 12:36:40;;;;;;;84.32;31.05;;;;;;;;;;5068074;28;20040;-69
2022/11/25 12:39:31;;;;;;;82.45;30.65;;;;;;;;;;5073392;28;20028;-73
2022/11/25 12:42:00;;;;;;;78.90;31.25;;;;;;;;;;5073385;28;20028;-69
2022/11/25 12:44:44;;;;;;;73.53;29.25;;;;;;;;;;5073115;28;20103;-69
2022/11/25 12:47:10;;;;;;;83.07;30.17;;;;;;;;;;5073088;28;20425;-68
2022/11/25 12:49:45;;;;;;;90.60;32.13;;;;;;;;;;5073179;28;20073;-73
2022/11/25 12:52:35;;;;;;;96.72;31.95;;;;;;;;;;5073161;28;20377;-71
2022/11/25 12:55:31;;;;;;;80.93;30.75;;;;;;;;;;5073155;28;20060;-68
2022/11/25 12:58:18;;;;;;;80.18;31.10;;;;;;;;;;5069736;28;20040;-69
2022/11/25 13:01:13;;;;;;;103.72;32.22;;;;;;;;;;5072777;28;20070;-68
2022/11/25 13:04:09;;;;;;;85.60;30.42;;;;;;;;;;5073035;28;20422;-68
2022/11/25 13:07:04;;;;;;;85.30;31.58;;;;;;;;;;5072542;28;20037;-68
2022/11/25 13:09:42;;;;;;;89.30;31.52;;;;;;;;;;5010928;28;20093;-68
2022/11/25 13:12:36;;;;;;;94.28;32.90;;;;;;;;;;5016915;28;20067;-68
2022/11/25 13:15:23;;;;;;;81.88;29.20;;;;;;;;;;5019868;28;20504;-69
2022/11/25 13:17:53;;;;;;;100.20;35.80;;;;;;;;;;5030579;28;20124;-68
2022/11/25 13:20:28;;;;;;;122.43;37.42;;;;;;;;;;5030486;28;20045;-72
2022/11/25 13:23:09;;;;;;;122.35;35.67;;;;;;;;;;5030369;28;20034;-68
2022/11/25 13:25:40;;;;;;;108.55;35.50;;;;;;;;;;5030539;28;20038;-68
2022/11/25 13:28:31;;;;;;;105.00;32.88;;;;;;;;;;5030324;28;20049;-76
2022/11/25 13:31:18;;;;;;;104.80;35.17;;;;;;;;;;5030029;28;20071;-73
2022/11/25 13:33:43;;;;;;;104.03;33.17;;;;;;;;;;5030183;28;20577;-68
2022/11/25 13:36:20;;;;;;;96.75;31.60;;;;;;;;;;5030168;28;20112;-73
2022/11/25 13:38:49;;;;;;;85.38;28.67;;;;;;;;;;5030226;28;20025;-76
2022/11/25 13:41:14;;;;;;;86.65;28.92;;;;;;;;;;5029991;28;20091;-73
2022/11/25 13:44:04;;;;;;;85.20;29.20;;;;;;;;;;5029968;28;20056;-68
2022/11/25 13:46:41;;;;;;;92.68;31.08;;;;;;;;;;5052066;28;20070;-72
2022/11/25 13:49:26;;;;;;;82.85;27.80;;;;;;;;;;5072379;28;20051;-70
2022/11/25 13:52:03;;;;;;;89.75;28.83;;;;;;;;;;5072237;28;20025;-71
2022/11/25 13:54:59;;;;;;;107.05;31.35;;;;;;;;;;5072044;28;20028;-74
2022/11/25 13:57:31;;;;;;;87.65;27.50;;;;;;;;;;5054822;28;20040;-69
2022/11/25 14:00:08;;;;;;;103.93;31.88;;;;;;;;;;5072355;28;20031;-76
2022/11/25 14:02:40;;;;;;;118.90;33.58;;;;;;;;;;5072245;28;20374;-76
2022/11/25 14:05:24;;;;;;;128.00;33.70;;;;;;;;;;5072101;28;20032;-76
2022/11/25 14:08:07;;;;;;;127.82;33.65;;;;;;;;;;5072010;28;20016;-77
2022/11/25 14:10:59;;;;;;;148.98;38.45;;;;;;;;;;5071973;28;20055;-77
2022/11/25 14:13:45;;;;;;;124.85;33.22;;;;;;;;;;5091131;28;20471;-77
2022/11/25 14:16:32;;;;;;;128.80;32.40;;;;;;;;;;5112582;28;20031;-75
2022/11/25 14:19:28;;;;;;;159.43;35.80;;;;;;;;;;5112414;28;20059;-78
2022/11/25 14:21:57;;;;;;;148.85;36.17;;;;;;;;;;5112502;28;20016;-76
2022/11/25 14:24:44;;;;;;;145.10;34.42;;;;;;;;;;5112495;28;20019;-73
2022/11/25 14:27:16;;;;;;;146.20;35.03;;;;;;;;;;5101077;28;20497;-76
2022/11/25 14:29:55;;;;;;;145.25;38.47;;;;;;;;;;5092229;28;20099;-77
2022/11/25 14:32:39;;;;;;;136.35;36.05;;;;;;;;;;5092058;28;20070;-74
2022/11/25 14:35:14;;;;;;;146.50;33.28;;;;;;;;;;5091882;28;20024;-77
2022/11/25 14:37:46;;;;;;;152.55;35.85;;;;;;;;;;5091908;28;20468;-77
2022/11/25 14:40:25;;;;;;;160.75;40.67;;;;;;;;;;5091861;28;20448;-69
2022/11/25 14:42:57;;;;;;;137.27;34.75;;;;;;;;;;5091727;28;20031;-71
2022/11/25 14:45:25;;;;;;;138.63;36.80;;;;;;;;;;5073820;28;20050;-68